Time;durP1;ratioP1;P1;durP2;ratioP2;P2;SDS_P1;SDS_P2;PMS_P1;PMS_P2;Temp;Humidity;BMP_temperature;BMP_pressure;BME280_temperature;BME280_humidity;BME280_pressure;Samples;Min_cycle;Max_cycle;Signal;HPM_P1;HPM_P2
2022/07/18 00:00:44;;;;;;;0.00;0.00;;;21.30;60.00;;;;;;4955611;28;20058;-77
2022/07/18 00:03:10;;;;;;;0.15;0.10;;;21.20;60.50;;;;;;4973003;28;20383;-77
2022/07/18 00:05:35;;;;;;;0.00;0.00;;;21.10;60.80;;;;;;4973154;28;20035;-77
2022/07/18 00:08:01;;;;;;;0.03;0.03;;;21.10;60.90;;;;;;4973178;28;20436;-77
2022/07/18 00:10:27;;;;;;;0.38;0.20;;;21.10;60.80;;;;;;4972693;28;20054;-77
2022/07/18 00:12:53;;;;;;;0.00;0.00;;;21.20;61.30;;;;;;4972890;28;20031;-77
2022/07/18 00:15:19;;;;;;;0.00;0.00;;;21.30;61.20;;;;;;4955903;28;20033;-76
2022/07/18 00:17:44;;;;;;;1.55;0.77;;;21.30;60.50;;;;;;4955618;28;20030;-76
2022/07/18 00:20:11;;;;;;;0.00;0.00;;;21.20;60.30;;;;;;4955441;28;20106;-76
2022/07/18 00:22:37;;;;;;;1.38;0.55;;;21.10;60.70;;;;;;4955143;28;20026;-76
2022/07/18 00:25:04;;;;;;;0.08;0.08;;;21.10;60.90;;;;;;4955582;28;20022;-77
2022/07/18 00:27:30;;;;;;;0.52;0.32;;;21.20;61.40;;;;;;4955515;28;20023;-76
2022/07/18 00:29:56;;;;;;;1.30;0.70;;;21.10;60.60;;;;;;4972445;28;20027;-75
2022/07/18 00:32:22;;;;;;;0.00;0.00;;;21.20;61.20;;;;;;4972376;28;20019;-77
2022/07/18 00:34:47;;;;;;;0.20;0.10;;;21.30;61.10;;;;;;4955466;28;20132;-78
2022/07/18 00:37:13;;;;;;;0.10;0.03;;;21.30;60.90;;;;;;4955376;28;20026;-76
2022/07/18 00:39:39;;;;;;;0.05;0.05;;;21.40;60.60;;;;;;4972249;28;20034;-76
2022/07/18 00:42:04;;;;;;;0.05;0.05;;;21.60;60.70;;;;;;4972322;28;20498;-76
2022/07/18 00:44:30;;;;;;;0.47;0.47;;;21.60;60.80;;;;;;4972241;28;20031;-76
2022/07/18 00:47:00;;;;;;;0.10;0.10;;;21.70;60.40;;;;;;4972360;28;20038;-76
2022/07/18 00:49:27;;;;;;;0.40;0.38;;;21.60;60.70;;;;;;4939533;28;20027;-76
2022/07/18 00:51:53;;;;;;;0.55;0.55;;;21.50;60.80;;;;;;4972523;28;20054;-76
2022/07/18 00:54:19;;;;;;;0.10;0.10;;;21.40;60.90;;;;;;4972509;28;20085;-75
2022/07/18 00:56:47;;;;;;;0.45;0.45;;;21.20;61.40;;;;;;4955073;28;20049;-75
2022/07/18 00:59:13;;;;;;;0.10;0.10;;;21.00;61.60;;;;;;4955220;28;20094;-76
2022/07/18 01:01:43;;;;;;;0.17;0.08;;;21.00;62.20;;;;;;4972358;28;20035;-77
2022/07/18 01:04:17;;;;;;;1.77;0.70;;;20.70;62.20;;;;;;4970734;28;20398;-76
2022/07/18 01:06:43;;;;;;;0.00;0.00;;;20.40;62.60;;;;;;4957609;28;20058;-76
2022/07/18 01:09:09;;;;;;;0.00;0.00;;;20.30;63.30;;;;;;4947745;28;20635;-77
2022/07/18 01:11:35;;;;;;;0.77;0.65;;;20.20;63.60;;;;;;4981881;28;20187;-76
2022/07/18 01:14:03;;;;;;;0.00;0.00;;;20.20;64.10;;;;;;4974102;28;20061;-76
2022/07/18 01:16:30;;;;;;;0.13;0.13;;;20.10;64.10;;;;;;4958802;28;20054;-75
2022/07/18 01:18:55;;;;;;;0.10;0.10;;;20.10;64.60;;;;;;4970992;28;20039;-76
2022/07/18 01:21:22;;;;;;;0.43;0.43;;;20.10;64.90;;;;;;4972323;28;20046;-76
2022/07/18 01:23:47;;;;;;;5.28;1.23;;;20.00;64.70;;;;;;4976935;28;20399;-76
2022/07/18 01:26:15;;;;;;;0.43;0.43;;;19.80;66.00;;;;;;4991295;28;20046;-76
2022/07/18 01:28:42;;;;;;;0.08;0.08;;;19.80;66.10;;;;;;4991414;28;20034;-76
2022/07/18 01:31:08;;;;;;;0.10;0.10;;;19.80;66.50;;;;;;4974453;28;20109;-76
2022/07/18 01:33:34;;;;;;;0.00;0.00;;;19.80;66.30;;;;;;4974256;28;20466;-76
2022/07/18 01:36:01;;;;;;;0.00;0.00;;;19.50;67.10;;;;;;4991601;28;20026;-76
2022/07/18 01:38:29;;;;;;;0.00;0.00;;;19.40;67.60;;;;;;4958003;28;20042;-76
2022/07/18 01:40:56;;;;;;;1.58;0.70;;;19.10;67.90;;;;;;4967241;28;20039;-78
2022/07/18 01:43:25;;;;;;;0.03;0.03;;;19.20;68.10;;;;;;4971922;28;20027;-77
2022/07/18 01:45:52;;;;;;;0.17;0.17;;;19.30;67.70;;;;;;4954935;28;20525;-76
2022/07/18 01:48:19;;;;;;;0.00;0.00;;;19.30;67.90;;;;;;4970804;28;20035;-76
2022/07/18 01:50:46;;;;;;;0.28;0.28;;;19.20;68.50;;;;;;4954592;28;20173;-76
2022/07/18 01:53:13;;;;;;;0.10;0.10;;;19.00;68.80;;;;;;4971673;28;20030;-76
2022/07/18 01:55:39;;;;;;;0.00;0.00;;;18.90;69.70;;;;;;4974012;28;20023;-76
2022/07/18 01:58:05;;;;;;;0.00;0.00;;;18.80;69.90;;;;;;4975330;28;20669;-76
2022/07/18 02:00:31;;;;;;;0.47;0.40;;;18.80;69.80;;;;;;4973753;28;20065;-76
2022/07/18 02:02:58;;;;;;;0.00;0.00;;;18.90;70.10;;;;;;4974135;28;20065;-76
2022/07/18 02:05:23;;;;;;;0.08;0.08;;;18.80;70.10;;;;;;4974258;28;20089;-76
2022/07/18 02:07:49;;;;;;;0.00;0.00;;;18.90;70.10;;;;;;4975449;28;20030;-77
2022/07/18 02:10:19;;;;;;;0.00;0.00;;;18.90;69.80;;;;;;4974204;28;20034;-76
2022/07/18 02:12:45;;;;;;;0.00;0.00;;;18.90;70.00;;;;;;4974826;28;20114;-77
2022/07/18 02:15:14;;;;;;;0.75;0.68;;;18.90;70.50;;;;;;4982722;28;20368;-77
2022/07/18 02:17:40;;;;;;;0.45;0.32;;;19.00;70.50;;;;;;4977365;28;20235;-77
2022/07/18 02:20:10;;;;;;;0.00;0.00;;;19.00;70.50;;;;;;4976922;28;20034;-76
2022/07/18 02:22:36;;;;;;;0.13;0.13;;;18.90;70.60;;;;;;4977018;28;20030;-77
2022/07/18 02:25:03;;;;;;;0.00;0.00;;;18.90;71.20;;;;;;4977267;28;20386;-76
2022/07/18 02:27:29;;;;;;;0.00;0.00;;;18.80;70.90;;;;;;4993402;28;20129;-77
2022/07/18 02:29:54;;;;;;;0.20;0.20;;;18.90;71.30;;;;;;4994382;28;20459;-77
2022/07/18 02:32:22;;;;;;;0.65;0.65;;;18.70;71.50;;;;;;4994046;28;20114;-76
2022/07/18 02:34:47;;;;;;;0.10;0.10;;;18.70;71.90;;;;;;4977017;28;20125;-76
2022/07/18 02:37:13;;;;;;;0.52;0.52;;;18.70;72.30;;;;;;4993967;28;20438;-77
2022/07/18 02:39:39;;;;;;;0.32;0.30;;;18.80;72.20;;;;;;4993892;28;20558;-77
2022/07/18 02:42:05;;;;;;;0.00;0.00;;;18.90;72.30;;;;;;4976598;28;20067;-77
2022/07/18 02:44:31;;;;;;;0.00;0.00;;;18.90;72.30;;;;;;4994088;28;20034;-77
2022/07/18 02:46:56;;;;;;;0.03;0.03;;;18.90;72.00;;;;;;4976676;28;20034;-76
2022/07/18 02:49:28;;;;;;;0.00;0.00;;;18.80;72.30;;;;;;4993698;28;20031;-76
2022/07/18 02:52:00;;;;;;;0.13;0.10;;;18.80;72.60;;;;;;4977550;28;20483;-77
2022/07/18 02:54:28;;;;;;;0.95;0.80;;;18.80;72.90;;;;;;4976432;28;20026;-77
2022/07/18 02:56:54;;;;;;;3.42;0.95;;;18.80;73.00;;;;;;4993852;28;20022;-77
2022/07/18 02:59:20;;;;;;;1.20;0.45;;;18.80;72.90;;;;;;4975872;28;20056;-77
2022/07/18 03:01:48;;;;;;;0.15;0.15;;;18.80;73.10;;;;;;4976424;28;20022;-77
2022/07/18 03:04:15;;;;;;;0.63;0.63;;;18.60;73.40;;;;;;4976305;28;20113;-77
2022/07/18 03:06:40;;;;;;;0.00;0.00;;;18.50;74.00;;;;;;4976364;28;20092;-77
2022/07/18 03:09:07;;;;;;;0.10;0.10;;;18.20;74.70;;;;;;4993100;28;20034;-77
2022/07/18 03:11:32;;;;;;;0.00;0.00;;;18.20;75.00;;;;;;4976262;28;20049;-77
2022/07/18 03:13:58;;;;;;;0.00;0.00;;;18.10;75.40;;;;;;4959766;28;20437;-77
2022/07/18 03:16:24;;;;;;;0.05;0.05;;;18.10;76.20;;;;;;4976103;28;20034;-77
2022/07/18 03:18:51;;;;;;;0.10;0.10;;;18.00;76.30;;;;;;4973911;28;20137;-77
2022/07/18 03:21:17;;;;;;;0.00;0.00;;;18.00;76.30;;;;;;4973995;28;20162;-77
2022/07/18 03:23:42;;;;;;;0.00;0.00;;;18.00;76.50;;;;;;4972619;28;20109;-77
2022/07/18 03:26:08;;;;;;;0.40;0.40;;;18.10;76.80;;;;;;4972785;28;20035;-77
2022/07/18 03:28:34;;;;;;;4.13;0.22;;;18.10;76.60;;;;;;4972394;28;20037;-77
2022/07/18 03:30:59;;;;;;;0.17;0.17;;;18.20;76.50;;;;;;4973614;28;20475;-77
2022/07/18 03:33:26;;;;;;;0.10;0.10;;;18.20;76.40;;;;;;4973093;28;20121;-77
2022/07/18 03:35:52;;;;;;;0.03;0.03;;;18.30;76.40;;;;;;4972383;28;20450;-76
2022/07/18 03:38:18;;;;;;;0.10;0.10;;;18.30;76.50;;;;;;4973659;28;20109;-76
2022/07/18 03:40:44;;;;;;;0.05;0.05;;;18.20;76.60;;;;;;4971825;28;20030;-76
2022/07/18 03:43:11;;;;;;;0.00;0.00;;;18.20;76.80;;;;;;4973333;28;20483;-76
2022/07/18 03:45:36;;;;;;;0.55;0.15;;;18.20;76.70;;;;;;4972235;28;20077;-76
2022/07/18 03:48:02;;;;;;;0.10;0.10;;;18.20;76.80;;;;;;4971908;28;20031;-75
2022/07/18 03:50:28;;;;;;;0.30;0.30;;;18.20;77.10;;;;;;4955784;28;20435;-76
2022/07/18 03:52:54;;;;;;;0.20;0.15;;;18.20;77.20;;;;;;4973331;28;20023;-75
2022/07/18 03:55:21;;;;;;;0.47;0.47;;;18.20;77.70;;;;;;4973150;28;20081;-75
2022/07/18 03:57:47;;;;;;;0.75;0.57;;;18.20;77.70;;;;;;4973064;28;20054;-76
2022/07/18 04:00:14;;;;;;;12.95;0.65;;;18.20;77.80;;;;;;4971815;28;20364;-76
2022/07/18 04:02:46;;;;;;;0.00;0.00;;;18.20;77.90;;;;;;4971423;28;20034;-64
2022/07/18 04:05:14;;;;;;;0.00;0.00;;;18.10;78.30;;;;;;4972145;28;20109;-65
2022/07/18 04:07:41;;;;;;;0.10;0.00;;;18.10;78.70;;;;;;4967425;28;20038;-65
2022/07/18 04:10:09;;;;;;;0.00;0.00;;;18.10;78.50;;;;;;4967273;28;20037;-65
2022/07/18 04:12:43;;;;;;;0.15;0.15;;;18.20;78.80;;;;;;4987783;28;20033;-66
2022/07/18 04:15:09;;;;;;;0.30;0.08;;;18.20;78.60;;;;;;4973605;28;20500;-66
2022/07/18 04:17:35;;;;;;;0.10;0.05;;;18.30;78.70;;;;;;4967068;28;20027;-65
2022/07/18 04:20:01;;;;;;;1.30;0.28;;;18.30;78.80;;;;;;4951816;28;20035;-65
2022/07/18 04:22:27;;;;;;;0.10;0.10;;;18.20;78.80;;;;;;4951994;29;20122;-66
2022/07/18 04:24:53;;;;;;;0.00;0.00;;;18.20;78.70;;;;;;4959222;28;20114;-66
2022/07/18 04:27:18;;;;;;;0.10;0.10;;;18.30;78.80;;;;;;4961783;28;20499;-65
2022/07/18 04:29:44;;;;;;;0.28;0.28;;;18.40;78.30;;;;;;4977254;28;20073;-67
2022/07/18 04:32:10;;;;;;;0.00;0.00;;;18.40;78.10;;;;;;4981197;28;20486;-67
2022/07/18 04:34:36;;;;;;;0.20;0.15;;;18.50;77.90;;;;;;4980960;28;20018;-67
2022/07/18 04:37:01;;;;;;;0.32;0.30;;;18.50;78.10;;;;;;4982879;28;20139;-67
2022/07/18 04:39:27;;;;;;;0.20;0.10;;;18.50;77.80;;;;;;4971515;28;20046;-67
2022/07/18 04:41:53;;;;;;;0.10;0.10;;;18.40;77.90;;;;;;4972465;28;20038;-66
2022/07/18 04:44:18;;;;;;;0.13;0.13;;;18.40;77.90;;;;;;4971856;28;20034;-66
2022/07/18 04:46:44;;;;;;;0.52;0.20;;;18.40;78.00;;;;;;4972039;28;20092;-66
2022/07/18 04:49:10;;;;;;;0.00;0.00;;;18.50;78.20;;;;;;4970567;28;20518;-66
2022/07/18 04:51:36;;;;;;;0.32;0.20;;;18.60;77.60;;;;;;4971922;28;20038;-66
2022/07/18 04:54:01;;;;;;;0.00;0.00;;;18.70;77.60;;;;;;4972002;28;20027;-65
2022/07/18 04:56:27;;;;;;;0.00;0.00;;;18.80;77.60;;;;;;4972038;28;20034;-65
2022/07/18 04:58:53;;;;;;;0.63;0.63;;;18.90;76.90;;;;;;4971911;28;20039;-65
2022/07/18 05:01:18;;;;;;;0.13;0.10;;;19.00;76.40;;;;;;4972210;28;20538;-65
2022/07/18 05:03:44;;;;;;;0.52;0.52;;;19.20;76.70;;;;;;4971974;28;20035;-67
2022/07/18 05:06:10;;;;;;;0.00;0.00;;;19.30;75.80;;;;;;4972210;28;20117;-68
2022/07/18 05:08:36;;;;;;;0.00;0.00;;;19.30;76.20;;;;;;4971873;28;20039;-64
2022/07/18 05:11:02;;;;;;;2.15;0.63;;;19.30;76.10;;;;;;4971938;28;20090;-64
2022/07/18 05:13:28;;;;;;;0.32;0.32;;;19.30;75.90;;;;;;4971650;28;20446;-65
2022/07/18 05:15:53;;;;;;;0.43;0.43;;;19.30;76.00;;;;;;4978221;28;20066;-65
2022/07/18 05:18:19;;;;;;;0.08;0.08;;;19.20;76.50;;;;;;4952746;28;20039;-65
2022/07/18 05:20:45;;;;;;;0.47;0.47;;;19.30;76.20;;;;;;4975644;28;20030;-65
2022/07/18 05:23:15;;;;;;;0.10;0.10;;;19.40;76.00;;;;;;4979950;28;20062;-65
2022/07/18 05:25:41;;;;;;;0.00;0.00;;;19.50;75.90;;;;;;4981461;28;20022;-65
2022/07/18 05:28:07;;;;;;;0.20;0.20;;;19.40;76.00;;;;;;4978311;28;20435;-65
2022/07/18 05:30:33;;;;;;;0.00;0.00;;;19.30;75.90;;;;;;4960851;28;20030;-65
2022/07/18 05:32:58;;;;;;;15.57;0.63;;;19.50;75.90;;;;;;4961556;28;20031;-65
2022/07/18 05:35:24;;;;;;;0.08;0.08;;;19.50;75.50;;;;;;4977480;28;20034;-63
2022/07/18 05:37:50;;;;;;;0.00;0.00;;;19.60;76.10;;;;;;4960771;28;20606;-66
2022/07/18 05:40:16;;;;;;;0.10;0.10;;;19.60;76.00;;;;;;4994611;28;20041;-64
2022/07/18 05:42:42;;;;;;;6.32;0.47;;;19.60;75.70;;;;;;4994546;28;20026;-64
2022/07/18 05:45:09;;;;;;;0.00;0.00;;;19.80;77.70;;;;;;4976786;28;20394;-65
2022/07/18 05:47:35;;;;;;;0.00;0.00;;;19.80;74.90;;;;;;4994399;28;20177;-65
2022/07/18 05:50:01;;;;;;;0.95;0.75;;;19.80;74.70;;;;;;4994013;28;20113;-65
2022/07/18 05:52:27;;;;;;;1.98;1.88;;;19.80;75.30;;;;;;4994711;28;20502;-65
2022/07/18 05:54:52;;;;;;;0.15;0.10;;;19.80;75.40;;;;;;4987419;28;20027;-65
2022/07/18 05:57:18;;;;;;;0.00;0.00;;;19.80;74.70;;;;;;4974847;28;20023;-65
2022/07/18 05:59:44;;;;;;;0.43;0.35;;;19.80;74.90;;;;;;4974841;28;20042;-65
2022/07/18 06:02:10;;;;;;;1.50;1.30;;;19.80;74.90;;;;;;4974583;28;20034;-65
2022/07/18 06:04:36;;;;;;;1.73;1.38;;;19.80;75.80;;;;;;4974844;28;20110;-65
2022/07/18 06:07:02;;;;;;;0.30;0.30;;;19.80;74.90;;;;;;4975037;28;20031;-65
2022/07/18 06:09:30;;;;;;;0.00;0.00;;;19.80;75.30;;;;;;4988169;28;20034;-66
2022/07/18 06:11:59;;;;;;;0.00;0.00;;;19.80;75.80;;;;;;4968990;28;20027;-67
2022/07/18 06:14:30;;;;;;;0.00;0.00;;;19.90;75.30;;;;;;4957668;28;20038;-65
2022/07/18 06:16:56;;;;;;;;;;;19.90;74.90;;;;;;4973982;28;20030;-65
2022/07/18 06:19:22;;;;;;;0.00;0.00;;;20.00;74.00;;;;;;4974707;28;19910;-65
2022/07/18 06:21:48;;;;;;;0.17;0.17;;;19.90;72.80;;;;;;4973828;28;20431;-65
2022/07/18 06:24:14;;;;;;;0.10;0.10;;;20.00;72.60;;;;;;4973309;28;20031;-65
2022/07/18 06:26:39;;;;;;;2.38;1.17;;;20.00;72.10;;;;;;4973307;28;20057;-65
2022/07/18 06:29:05;;;;;;;0.00;0.00;;;20.10;72.10;;;;;;4974713;28;20130;-65
2022/07/18 06:31:31;;;;;;;0.28;0.28;;;20.20;73.00;;;;;;4974714;28;20557;-65
2022/07/18 06:33:56;;;;;;;0.00;0.00;;;20.40;71.40;;;;;;4973439;28;20029;-65
2022/07/18 06:36:23;;;;;;;0.10;0.10;;;20.40;71.60;;;;;;4957245;28;20034;-65
2022/07/18 06:38:52;;;;;;;0.00;0.00;;;20.50;71.10;;;;;;4984734;28;20445;-65
2022/07/18 06:41:19;;;;;;;0.00;0.00;;;20.60;71.30;;;;;;4992975;28;20030;-67
2022/07/18 06:43:45;;;;;;;0.10;0.10;;;20.70;71.10;;;;;;4976256;28;20153;-66
2022/07/18 06:46:11;;;;;;;0.00;0.00;;;20.80;70.40;;;;;;4976783;28;20034;-66
2022/07/18 06:48:37;;;;;;;1.35;0.95;;;20.90;70.60;;;;;;4993219;28;20100;-67
2022/07/18 06:51:05;;;;;;;0.00;0.00;;;21.00;70.70;;;;;;4993910;28;20037;-66
2022/07/18 06:53:31;;;;;;;0.00;0.00;;;21.10;70.30;;;;;;4993222;28;20038;-66
2022/07/18 06:55:57;;;;;;;0.00;0.00;;;21.20;70.50;;;;;;4976282;28;20433;-67
2022/07/18 06:58:24;;;;;;;0.03;0.03;;;21.20;70.20;;;;;;4993700;28;20034;-67
2022/07/18 07:00:51;;;;;;;0.77;0.20;;;21.30;70.30;;;;;;4993186;28;20041;-67
2022/07/18 07:03:16;;;;;;;0.00;0.00;;;21.50;70.00;;;;;;4976121;28;20031;-67
2022/07/18 07:05:42;;;;;;;0.00;0.00;;;21.50;69.40;;;;;;4993219;28;20122;-66
2022/07/18 07:08:08;;;;;;;0.10;0.10;;;21.60;69.00;;;;;;4993249;28;20057;-67
2022/07/18 07:10:34;;;;;;;0.20;0.20;;;21.70;68.70;;;;;;4993317;28;20124;-67
2022/07/18 07:13:00;;;;;;;0.15;0.15;;;21.80;68.70;;;;;;4993403;28;20024;-67
2022/07/18 07:15:26;;;;;;;0.00;0.00;;;21.90;68.80;;;;;;4976051;28;20034;-66
2022/07/18 07:17:52;;;;;;;0.00;0.00;;;22.00;68.80;;;;;;4993126;28;20125;-67
2022/07/18 07:20:20;;;;;;;0.00;0.00;;;22.00;68.10;;;;;;4975487;28;20421;-67
2022/07/18 07:22:50;;;;;;;0.00;0.00;;;22.10;67.70;;;;;;4991649;28;20058;-68
2022/07/18 07:25:18;;;;;;;0.57;0.50;;;22.20;66.90;;;;;;4993281;28;20042;-66
2022/07/18 07:27:44;;;;;;;0.10;0.10;;;22.30;66.90;;;;;;4975917;28;20030;-66
2022/07/18 07:30:11;;;;;;;0.10;0.10;;;22.40;67.00;;;;;;4992514;28;20038;-66
2022/07/18 07:32:39;;;;;;;0.05;0.05;;;22.50;66.80;;;;;;4992692;28;20026;-66
2022/07/18 07:35:10;;;;;;;0.00;0.00;;;22.50;66.30;;;;;;4975202;28;20033;-66
2022/07/18 07:37:36;;;;;;;0.17;0.15;;;22.60;66.00;;;;;;4976070;28;20033;-66
2022/07/18 07:40:03;;;;;;;0.05;0.05;;;22.70;65.80;;;;;;4992603;28;20038;-66
2022/07/18 07:42:29;;;;;;;0.57;0.57;;;22.90;66.40;;;;;;4975098;28;20030;-66
2022/07/18 07:44:55;;;;;;;0.00;0.00;;;23.00;65.70;;;;;;4992937;28;20042;-66
2022/07/18 07:47:21;;;;;;;0.00;0.00;;;23.10;64.70;;;;;;4975228;28;20382;-66
2022/07/18 07:49:47;;;;;;;0.17;0.15;;;23.30;64.00;;;;;;4974873;28;20113;-66
2022/07/18 07:52:13;;;;;;;0.00;0.00;;;23.30;64.10;;;;;;4974125;28;20037;-66
2022/07/18 07:54:44;;;;;;;0.65;0.52;;;23.40;63.20;;;;;;4992603;28;20033;-66
2022/07/18 07:57:10;;;;;;;4.68;0.32;;;23.40;63.30;;;;;;4992687;28;20029;-66
2022/07/18 07:59:36;;;;;;;0.28;0.28;;;23.60;63.50;;;;;;4992462;28;20069;-66
2022/07/18 08:02:03;;;;;;;0.03;0.03;;;23.70;61.30;;;;;;4992238;28;20077;-66
2022/07/18 08:04:29;;;;;;;0.15;0.15;;;23.80;61.10;;;;;;4975671;28;20035;-66
2022/07/18 08:06:55;;;;;;;0.00;0.00;;;23.90;62.40;;;;;;4955697;28;20031;-66
2022/07/18 08:09:21;;;;;;;0.98;0.30;;;24.00;60.90;;;;;;4970184;28;20033;-66
2022/07/18 08:11:47;;;;;;;1.10;0.38;;;24.20;61.10;;;;;;4975171;28;20034;-66
2022/07/18 08:14:13;;;;;;;3.33;1.02;;;24.30;61.10;;;;;;4992314;28;20023;-66
2022/07/18 08:16:39;;;;;;;1.90;1.08;;;24.40;61.00;;;;;;4974982;28;20026;-65
2022/07/18 08:19:05;;;;;;;0.20;0.13;;;24.50;60.80;;;;;;4974408;28;20034;-66
2022/07/18 08:21:30;;;;;;;0.30;0.30;;;24.60;60.30;;;;;;4983671;28;20037;-66
2022/07/18 08:23:56;;;;;;;0.00;0.00;;;24.80;60.10;;;;;;4953325;28;20035;-66
2022/07/18 08:26:22;;;;;;;0.15;0.15;;;24.90;59.60;;;;;;4953596;29;20035;-65
2022/07/18 08:28:47;;;;;;;0.40;0.40;;;24.90;59.60;;;;;;4952998;29;20039;-67
2022/07/18 08:31:13;;;;;;;15.57;0.95;;;25.10;59.50;;;;;;4953695;29;20027;-65
2022/07/18 08:33:40;;;;;;;0.47;0.47;;;25.20;59.00;;;;;;4953085;28;20035;-67
2022/07/18 08:36:08;;;;;;;0.35;0.35;;;25.30;58.30;;;;;;4953669;28;20059;-65
2022/07/18 08:38:33;;;;;;;0.00;0.00;;;25.40;58.00;;;;;;4963929;28;20033;-66
2022/07/18 08:41:01;;;;;;;0.05;0.05;;;25.50;58.00;;;;;;4991986;28;20030;-65
2022/07/18 08:43:27;;;;;;;5.32;0.73;;;25.60;57.20;;;;;;4974475;28;20031;-65
2022/07/18 08:46:03;;;;;;;10.15;0.65;;;25.70;57.20;;;;;;4991507;28;20034;-65
2022/07/18 08:48:30;;;;;;;0.30;0.20;;;25.80;56.50;;;;;;4991694;28;20042;-65
2022/07/18 08:50:55;;;;;;;0.00;0.00;;;25.90;57.20;;;;;;4974312;28;20023;-65
2022/07/18 08:53:21;;;;;;;0.00;0.00;;;26.00;56.70;;;;;;4974129;28;20053;-65
2022/07/18 08:55:48;;;;;;;0.52;0.43;;;26.10;55.20;;;;;;4974496;28;20030;-65
2022/07/18 08:58:17;;;;;;;0.35;0.35;;;26.30;55.60;;;;;;4974229;28;20038;-66
2022/07/18 09:00:47;;;;;;;0.08;0.08;;;26.40;55.40;;;;;;4991552;28;20041;-65
2022/07/18 09:03:13;;;;;;;0.10;0.10;;;26.50;54.80;;;;;;4975931;28;20544;-66
2022/07/18 09:05:42;;;;;;;0.20;0.20;;;26.60;54.90;;;;;;4995810;28;20041;-66
2022/07/18 09:08:17;;;;;;;0.52;0.52;;;26.60;54.70;;;;;;4973452;28;20041;-66
2022/07/18 09:10:58;;;;;;;0.73;0.40;;;26.70;54.50;;;;;;4975870;28;20390;-65
2022/07/18 09:13:32;;;;;;;0.43;0.30;;;26.80;53.60;;;;;;4976318;28;20027;-65
2022/07/18 09:16:14;;;;;;;0.52;0.52;;;26.90;53.70;;;;;;4976125;28;20113;-66
2022/07/18 09:18:46;;;;;;;0.45;0.20;;;27.10;53.20;;;;;;4976016;28;20041;-66
2022/07/18 09:21:18;;;;;;;0.32;0.30;;;27.20;52.60;;;;;;4958973;28;20035;-66
2022/07/18 09:23:53;;;;;;;0.10;0.10;;;27.40;52.50;;;;;;4976686;28;20089;-66
2022/07/18 09:26:43;;;;;;;0.00;0.00;;;27.40;52.90;;;;;;4958838;28;20031;-66
2022/07/18 09:29:16;;;;;;;1.65;0.60;;;27.50;52.20;;;;;;4975611;28;20035;-66
2022/07/18 09:31:50;;;;;;;0.35;0.30;;;27.70;52.10;;;;;;4958631;28;20511;-66
2022/07/18 09:34:36;;;;;;;0.20;0.10;;;27.80;51.90;;;;;;4958401;28;20026;-66
2022/07/18 09:37:02;;;;;;;0.13;0.13;;;27.90;50.40;;;;;;4958657;28;20027;-67
2022/07/18 09:39:29;;;;;;;0.00;0.00;;;28.00;50.50;;;;;;4991247;28;20030;-66
2022/07/18 09:42:14;;;;;;;1.85;0.25;;;28.10;50.70;;;;;;4995070;28;20087;-66
2022/07/18 09:44:39;;;;;;;0.10;0.00;;;28.20;50.80;;;;;;4977480;28;20042;-65
2022/07/18 09:47:06;;;;;;;0.10;0.08;;;28.30;50.40;;;;;;4977501;28;20030;-65
2022/07/18 09:49:39;;;;;;;0.28;0.28;;;28.50;49.60;;;;;;4994720;28;20454;-65
2022/07/18 09:52:09;;;;;;;0.85;0.65;;;28.60;49.80;;;;;;4978155;28;20398;-65
2022/07/18 09:54:36;;;;;;;0.20;0.20;;;28.80;50.30;;;;;;4995311;28;20030;-66
2022/07/18 09:57:02;;;;;;;0.03;0.03;;;28.90;48.80;;;;;;4977352;28;20026;-66
2022/07/18 09:59:28;;;;;;;0.08;0.08;;;29.00;48.90;;;;;;4977356;28;20437;-66
2022/07/18 10:01:54;;;;;;;0.00;0.00;;;29.20;49.30;;;;;;4977261;28;20113;-68
2022/07/18 10:04:20;;;;;;;1.30;0.30;;;29.30;49.80;;;;;;4960561;28;20079;-66
2022/07/18 10:06:46;;;;;;;0.10;0.10;;;29.40;50.00;;;;;;4957977;28;20026;-66
2022/07/18 10:09:12;;;;;;;3.70;0.30;;;29.70;48.60;;;;;;4988286;28;20106;-67
2022/07/18 10:11:39;;;;;;;0.80;0.65;;;29.70;49.10;;;;;;4985778;28;20473;-67
2022/07/18 10:14:06;;;;;;;0.00;0.00;;;29.70;48.20;;;;;;4973519;28;20050;-69
2022/07/18 10:16:31;;;;;;;0.10;0.08;;;29.90;49.10;;;;;;4973901;28;20655;-66
2022/07/18 10:18:59;;;;;;;0.00;0.00;;;30.00;48.40;;;;;;4975020;28;20070;-67
2022/07/18 10:21:25;;;;;;;1.30;0.38;;;29.90;48.40;;;;;;4974771;28;20038;-67
2022/07/18 10:23:52;;;;;;;0.00;0.00;;;30.10;48.30;;;;;;4973430;28;20117;-67
2022/07/18 10:26:26;;;;;;;1.02;0.45;;;30.20;48.90;;;;;;4973505;28;20117;-66
2022/07/18 10:28:55;;;;;;;2.25;0.75;;;30.50;49.10;;;;;;4971792;28;20475;-67
2022/07/18 10:31:29;;;;;;;1.85;0.52;;;30.70;48.70;;;;;;4970212;28;20062;-67
2022/07/18 10:34:04;;;;;;;0.52;0.40;;;30.80;48.50;;;;;;4928657;28;20026;-66
2022/07/18 10:36:31;;;;;;;1.52;0.70;;;31.00;48.30;;;;;;4966637;28;20089;-67
2022/07/18 10:39:23;;;;;;;0.00;0.00;;;31.10;48.70;;;;;;4984665;28;20640;-67
2022/07/18 10:41:54;;;;;;;0.63;0.30;;;31.20;47.70;;;;;;4976958;28;20060;-71
2022/07/18 10:44:29;;;;;;;4.97;0.30;;;31.20;47.20;;;;;;4991900;28;20180;-67
2022/07/18 10:47:11;;;;;;;0.10;0.10;;;30.90;46.70;;;;;;4983080;28;20039;-67
2022/07/18 10:49:49;;;;;;;0.20;0.20;;;31.00;47.70;;;;;;4978531;28;20035;-67
2022/07/18 10:52:27;;;;;;;0.10;0.10;;;31.30;48.10;;;;;;4955025;29;20035;-67
2022/07/18 10:55:22;;;;;;;0.00;0.00;;;31.40;48.00;;;;;;4955139;29;20038;-67
2022/07/18 10:57:50;;;;;;;0.00;0.00;;;30.80;46.60;;;;;;4953402;29;20583;-67
2022/07/18 11:00:37;;;;;;;0.10;0.05;;;31.10;46.70;;;;;;4954682;29;20042;-67
2022/07/18 11:03:11;;;;;;;0.80;0.80;;;31.40;47.30;;;;;;4954632;29;20101;-67
2022/07/18 11:05:44;;;;;;;0.30;0.30;;;31.60;46.80;;;;;;4955041;29;20035;-67
2022/07/18 11:08:12;;;;;;;0.10;0.10;;;31.80;47.30;;;;;;4965373;28;20483;-67
2022/07/18 11:10:44;;;;;;;1.23;0.43;;;32.20;46.70;;;;;;4992452;28;20097;-67
2022/07/18 11:13:28;;;;;;;0.00;0.00;;;32.30;45.90;;;;;;4993253;28;20026;-65
2022/07/18 11:16:13;;;;;;;3.30;1.35;;;32.50;45.60;;;;;;4993174;28;20066;-66
2022/07/18 11:18:39;;;;;;;0.00;0.00;;;32.40;45.80;;;;;;4993161;28;20406;-65
2022/07/18 11:21:34;;;;;;;0.00;0.00;;;32.80;46.60;;;;;;4993214;28;20030;-65
2022/07/18 11:24:08;;;;;;;0.00;0.00;;;32.90;44.70;;;;;;4992066;28;20487;-66
2022/07/18 11:26:42;;;;;;;0.10;0.00;;;32.90;45.20;;;;;;4992923;28;20113;-66
2022/07/18 11:29:11;;;;;;;0.10;0.10;;;33.00;44.40;;;;;;4976258;28;20406;-66
2022/07/18 11:32:06;;;;;;;0.22;0.22;;;33.00;44.80;;;;;;4993242;28;20030;-66
2022/07/18 11:34:32;;;;;;;0.15;0.03;;;32.80;43.80;;;;;;4967101;28;20045;-66
2022/07/18 11:36:59;;;;;;;0.15;0.10;;;32.40;44.10;;;;;;4959028;28;20038;-66
2022/07/18 11:39:31;;;;;;;0.00;0.00;;;32.50;44.30;;;;;;4975671;28;20104;-66
2022/07/18 11:41:57;;;;;;;0.03;0.03;;;33.00;43.80;;;;;;4992860;28;20029;-66
2022/07/18 11:44:26;;;;;;;0.10;0.10;;;33.10;43.60;;;;;;4992830;28;20557;-66
2022/07/18 11:47:21;;;;;;;0.00;0.00;;;33.10;43.80;;;;;;4992831;28;20038;-66
2022/07/18 11:49:55;;;;;;;0.00;0.00;;;33.30;43.60;;;;;;4983837;28;20297;-66
2022/07/18 11:52:22;;;;;;;1.33;0.17;;;33.30;44.30;;;;;;4992782;28;20090;-67
2022/07/18 11:54:47;;;;;;;0.10;0.10;;;33.20;44.50;;;;;;4975308;28;20030;-66
2022/07/18 11:57:25;;;;;;;0.00;0.00;;;33.20;44.60;;;;;;4975038;28;20030;-66
2022/07/18 11:59:50;;;;;;;0.00;0.00;;;33.10;43.20;;;;;;4976420;28;20030;-66
2022/07/18 12:02:16;;;;;;;0.00;0.00;;;33.00;44.90;;;;;;4974961;28;20049;-66
2022/07/18 12:04:42;;;;;;;0.10;0.00;;;33.50;44.60;;;;;;4969576;28;20058;-66
2022/07/18 12:07:25;;;;;;;0.00;0.00;;;34.00;43.20;;;;;;4973005;28;20031;-66
2022/07/18 12:09:52;;;;;;;0.75;0.25;;;34.20;43.40;;;;;;4955321;28;20503;-66
2022/07/18 12:12:20;;;;;;;0.13;0.13;;;33.80;43.10;;;;;;4972776;28;20153;-66
2022/07/18 12:15:01;;;;;;;0.00;0.00;;;34.10;44.00;;;;;;4961013;28;20034;-66
2022/07/18 12:17:29;;;;;;;0.95;0.63;;;34.10;43.90;;;;;;4992217;28;20077;-66
2022/07/18 12:20:21;;;;;;;0.17;0.17;;;33.90;43.60;;;;;;4992114;28;20038;-65
2022/07/18 12:23:13;;;;;;;0.98;0.85;;;34.10;43.60;;;;;;4974490;28;20030;-66
2022/07/18 12:25:42;;;;;;;0.10;0.00;;;33.50;43.20;;;;;;4970801;28;20496;-66
2022/07/18 12:28:19;;;;;;;0.00;0.00;;;33.80;43.30;;;;;;4954455;28;20066;-67
2022/07/18 12:30:46;;;;;;;0.63;0.38;;;34.20;43.50;;;;;;4953070;28;20035;-67
2022/07/18 12:33:13;;;;;;;0.17;0.13;;;34.50;44.00;;;;;;4953294;29;20418;-66
2022/07/18 12:35:40;;;;;;;0.68;0.20;;;34.40;43.10;;;;;;4953114;29;20027;-66
2022/07/18 12:38:15;;;;;;;0.00;0.00;;;34.50;43.50;;;;;;4959627;28;20022;-64
2022/07/18 12:40:46;;;;;;;0.00;0.00;;;34.30;43.10;;;;;;4991654;28;20034;-65
2022/07/18 12:43:14;;;;;;;0.28;0.05;;;34.10;43.30;;;;;;4991564;28;20026;-65
2022/07/18 12:45:42;;;;;;;0.40;0.30;;;33.90;43.90;;;;;;4971351;28;20038;-65
2022/07/18 12:48:10;;;;;;;0.80;0.40;;;34.10;43.20;;;;;;4971311;28;20521;-65
2022/07/18 12:50:38;;;;;;;0.43;0.35;;;34.30;43.60;;;;;;4971079;28;20046;-65
2022/07/18 12:53:04;;;;;;;0.15;0.10;;;35.00;43.70;;;;;;4972177;28;20166;-66